createdAt,value
2019-03-11T00:00:35.600Z,96.50
2019-03-11T00:03:05.573Z,96.70
2019-03-11T00:05:35.554Z,96.20
2019-03-11T00:08:05.682Z,96.80
2019-03-11T00:10:35.743Z,96.20
2019-03-11T00:13:05.641Z,96.70
2019-03-11T00:15:35.640Z,96.50
2019-03-11T00:18:05.553Z,96.10
2019-03-11T00:20:35.587Z,96.80
2019-03-11T00:23:05.571Z,95.80
2019-03-11T00:25:35.611Z,96.30
2019-03-11T00:28:05.657Z,96.60
2019-03-11T00:30:35.772Z,96.60
2019-03-11T00:33:05.686Z,97.30
2019-03-11T00:35:35.805Z,97.50
2019-03-11T00:38:06.891Z,98.90
2019-03-11T00:40:37.024Z,98.00
2019-03-11T00:43:07.003Z,97.60
2019-03-11T00:45:37.154Z,96.40
2019-03-11T00:48:07.008Z,96.60
2019-03-11T00:50:37.057Z,96.90
2019-03-11T00:53:07.128Z,97.60
2019-03-11T00:55:37.080Z,97.60
2019-03-11T00:58:07.036Z,97.00
2019-03-11T01:00:37.776Z,96.60
2019-03-11T01:03:07.771Z,96.60
2019-03-11T01:05:37.688Z,96.90
2019-03-11T01:08:07.676Z,97.40
2019-03-11T01:10:37.592Z,98.10
2019-03-11T01:13:07.487Z,98.10
2019-03-11T01:15:37.416Z,98.90
2019-03-11T01:18:07.320Z,97.60
2019-03-11T01:20:37.244Z,96.90
2019-03-11T01:23:07.238Z,95.60
2019-03-11T01:25:37.290Z,96.30
2019-03-11T01:28:07.151Z,96.70
2019-03-11T01:30:37.034Z,98.40
2019-03-11T01:33:07.020Z,98.80
2019-03-11T01:35:36.985Z,97.50
2019-03-11T01:38:06.968Z,97.60
2019-03-11T01:40:37.006Z,97.60
2019-03-11T01:43:07.003Z,97.40
2019-03-11T01:45:36.907Z,97.80
2019-03-11T01:48:06.971Z,98.20
2019-03-11T01:50:36.885Z,97.70
2019-03-11T01:53:06.862Z,96.60
2019-03-11T01:55:36.860Z,96.40
2019-03-11T01:58:06.856Z,96.50
2019-03-11T02:00:36.847Z,98.50
2019-03-11T02:03:06.864Z,97.80
2019-03-11T02:05:36.926Z,97.90
2019-03-11T02:08:06.908Z,97.20
2019-03-11T02:10:36.724Z,97.80
2019-03-11T02:13:06.785Z,98.30
2019-03-11T02:15:36.943Z,97.60
2019-03-11T02:18:06.874Z,97.80
2019-03-11T02:20:36.844Z,97.70
2019-03-11T02:23:06.831Z,97.90
2019-03-11T02:25:36.869Z,98.10
2019-03-11T02:28:06.880Z,98.00
2019-03-11T02:30:36.939Z,98.40
2019-03-11T02:33:06.858Z,98.80
2019-03-11T02:35:36.963Z,98.30
2019-03-11T02:38:07.069Z,98.10
2019-03-11T02:40:37.103Z,97.80
2019-03-11T02:43:07.012Z,97.20
2019-03-11T02:45:36.948Z,96.50
2019-03-11T02:48:07.917Z,97.20
2019-03-11T02:50:37.823Z,96.90
2019-03-11T02:53:08.904Z,96.20
2019-03-11T02:55:38.895Z,97.30
2019-03-11T02:58:08.941Z,98.10
2019-03-11T03:00:38.943Z,97.90
2019-03-11T03:03:10.557Z,98.20
2019-03-11T03:05:48.359Z,98.90
2019-03-11T03:08:18.256Z,98.70
2019-03-11T03:10:48.225Z,97.20
2019-03-11T03:13:18.156Z,98.50
2019-03-11T03:15:48.119Z,99.10
2019-03-11T03:18:18.206Z,99.20
2019-03-11T03:20:48.100Z,98.60
2019-03-11T03:23:18.058Z,98.70
2019-03-11T03:25:47.960Z,97.90
2019-03-11T03:28:17.944Z,98.20
2019-03-11T03:30:47.935Z,99.00
2019-03-11T03:33:17.985Z,98.90
2019-03-11T03:35:47.758Z,99.00
2019-03-11T03:38:29.861Z,98.70
2019-03-11T03:40:49.236Z,98.30
2019-03-11T03:43:19.134Z,98.00
2019-03-11T03:45:49.243Z,98.50
2019-03-11T03:48:19.235Z,98.20
2019-03-11T03:50:49.452Z,99.30
2019-03-11T03:53:19.286Z,99.40
2019-03-11T03:55:49.233Z,99.60
2019-03-11T03:58:19.185Z,99.50
2019-03-11T04:00:49.168Z,99.90
2019-03-11T04:03:19.182Z,99.90
2019-03-11T04:05:49.147Z,99.90
2019-03-11T04:08:19.185Z,99.30
2019-03-11T04:10:49.141Z,99.40
2019-03-11T04:13:19.065Z,99.10
2019-03-11T04:15:48.955Z,98.30
2019-03-11T04:18:18.824Z,98.80
2019-03-11T04:20:48.856Z,99.60
2019-03-11T04:23:18.767Z,99.90
2019-03-11T04:25:48.809Z,99.90
2019-03-11T04:28:18.709Z,99.90
2019-03-11T04:30:48.691Z,99.80
2019-03-11T04:33:18.743Z,99.90
2019-03-11T04:35:48.787Z,99.10
2019-03-11T04:38:18.676Z,99.30
2019-03-11T04:40:48.700Z,99.90
2019-03-11T04:43:18.597Z,99.90
2019-03-11T04:45:48.408Z,99.70
2019-03-11T04:48:18.310Z,99.60
2019-03-11T04:50:49.273Z,98.80
2019-03-11T04:53:19.181Z,98.60
2019-03-11T04:55:49.222Z,98.10
2019-03-11T04:58:19.139Z,97.70
2019-03-11T05:00:49.107Z,97.60
2019-03-11T05:03:19.145Z,97.40
2019-03-11T05:05:49.105Z,98.70
2019-03-11T05:08:19.171Z,99.70
2019-03-11T05:10:48.993Z,99.70
2019-03-11T05:13:18.950Z,99.90
2019-03-11T05:15:48.929Z,99.90
2019-03-11T05:18:18.815Z,99.90
2019-03-11T05:20:48.803Z,98.90
2019-03-11T05:23:18.918Z,99.40
2019-03-11T05:25:48.836Z,99.60
2019-03-11T05:28:18.722Z,99.00
2019-03-11T05:30:48.633Z,98.30
2019-03-11T05:33:18.604Z,98.50
2019-03-11T05:35:48.525Z,99.60
2019-03-11T05:38:18.571Z,99.90
2019-03-11T05:40:48.520Z,99.90
2019-03-11T05:43:18.485Z,99.90
2019-03-11T05:45:48.467Z,99.70
2019-03-11T05:48:18.394Z,99.40
2019-03-11T05:50:48.453Z,98.80
2019-03-11T05:53:18.376Z,99.50
2019-03-11T05:55:48.305Z,98.90
2019-03-11T05:58:18.236Z,98.80
2019-03-11T06:00:48.225Z,97.90
2019-03-11T06:03:18.220Z,97.80
2019-03-11T06:05:48.209Z,97.90
2019-03-11T06:08:22.823Z,98.40
2019-03-11T06:10:52.799Z,98.50
2019-03-11T06:13:22.922Z,98.70
2019-03-11T06:15:52.780Z,97.90
2019-03-11T06:18:33.202Z,98.00
2019-03-11T06:21:22.802Z,98.10
2019-03-11T06:23:52.857Z,97.70
2019-03-11T06:26:22.778Z,97.90
2019-03-11T06:28:52.959Z,98.30
2019-03-11T06:31:22.862Z,98.10
2019-03-11T06:33:52.829Z,98.20
2019-03-11T06:36:22.758Z,98.00
2019-03-11T06:38:52.704Z,98.10
2019-03-11T06:41:22.772Z,97.40
2019-03-11T06:43:52.684Z,97.10
2019-03-11T06:46:23.685Z,97.30
2019-03-11T06:48:53.577Z,97.20
2019-03-11T06:51:23.546Z,97.20
2019-03-11T06:53:53.428Z,97.30
2019-03-11T06:56:23.369Z,96.70
2019-03-11T06:58:54.400Z,95.80
2019-03-11T07:01:24.461Z,95.50
2019-03-11T07:03:54.362Z,95.70
2019-03-11T07:06:24.266Z,95.70
2019-03-11T07:09:01.029Z,95.70
2019-03-11T07:11:32.595Z,95.40
2019-03-11T07:14:04.171Z,95.60
2019-03-11T07:16:35.145Z,95.20
2019-03-11T07:19:05.230Z,94.70
2019-03-11T07:21:35.191Z,94.50
2019-03-11T07:24:05.169Z,93.90
2019-03-11T07:26:35.225Z,93.40
2019-03-11T07:29:06.363Z,93.60
2019-03-11T07:31:36.274Z,93.20
2019-03-11T07:34:08.016Z,92.80
2019-03-11T07:36:37.997Z,92.50
2019-03-11T07:39:07.902Z,92.20
2019-03-11T07:41:38.077Z,92.20
2019-03-11T07:44:08.068Z,92.10
2019-03-11T07:46:37.984Z,92.00
2019-03-11T07:49:07.911Z,91.70
2019-03-11T07:51:37.773Z,91.60
2019-03-11T07:54:07.793Z,90.90
2019-03-11T07:56:37.764Z,91.30
2019-03-11T07:59:07.667Z,90.80
2019-03-11T08:01:37.514Z,90.70
2019-03-11T08:04:07.393Z,90.90
2019-03-11T08:06:37.222Z,90.70
2019-03-11T08:09:07.308Z,90.70
2019-03-11T08:11:38.400Z,90.40
2019-03-11T08:14:08.292Z,90.20
2019-03-11T08:16:38.295Z,90.10
2019-03-11T08:19:08.142Z,90.50
2019-03-11T08:21:39.238Z,90.40
2019-03-11T08:24:09.276Z,90.30
2019-03-11T08:26:39.335Z,90.50
2019-03-11T08:29:09.300Z,90.30
2019-03-11T08:31:39.314Z,90.50
2019-03-11T08:34:09.358Z,91.90
2019-03-11T08:36:39.421Z,90.10
2019-03-11T08:39:10.476Z,90.90
2019-03-11T08:41:40.456Z,90.30
2019-03-11T08:44:10.452Z,90.40
2019-03-11T08:46:40.428Z,90.20
2019-03-11T08:49:10.431Z,90.00
2019-03-11T08:51:41.457Z,90.00
2019-03-11T08:54:11.855Z,89.10
2019-03-11T08:56:41.908Z,87.30
2019-03-11T08:59:11.891Z,88.00
2019-03-11T09:01:42.019Z,87.10
2019-03-11T09:04:11.922Z,88.00
2019-03-11T09:06:41.856Z,87.50
2019-03-11T09:09:11.858Z,88.10
2019-03-11T09:11:42.893Z,86.00
2019-03-11T09:14:12.908Z,85.80
2019-03-11T09:16:43.008Z,86.30
2019-03-11T09:19:12.915Z,85.80
2019-03-11T09:21:42.912Z,87.00
2019-03-11T09:24:19.297Z,87.20
2019-03-11T09:26:44.568Z,87.40
2019-03-11T09:29:14.558Z,85.80
2019-03-11T09:31:44.550Z,82.70
2019-03-11T09:34:14.550Z,85.10
2019-03-11T09:36:44.478Z,83.80
2019-03-11T09:39:14.398Z,83.90
2019-03-11T09:41:45.490Z,83.80
2019-03-11T09:44:15.536Z,82.60
2019-03-11T09:46:45.453Z,87.10
2019-03-11T09:49:15.524Z,83.50
2019-03-11T09:51:45.518Z,84.20
2019-03-11T09:54:15.562Z,85.00
2019-03-11T09:56:45.631Z,84.10
2019-03-11T09:59:15.673Z,83.40
2019-03-11T10:01:45.674Z,83.40
2019-03-11T10:04:15.664Z,82.10
2019-03-11T10:06:45.752Z,80.70
2019-03-11T10:09:15.781Z,81.30
2019-03-11T10:11:45.838Z,79.60
2019-03-11T10:14:15.751Z,79.30
2019-03-11T10:16:45.745Z,80.00
2019-03-11T10:19:15.777Z,79.80
2019-03-11T10:21:45.908Z,77.00
2019-03-11T10:24:15.735Z,77.90
2019-03-11T10:26:45.791Z,75.40
2019-03-11T10:29:15.701Z,76.20
2019-03-11T10:31:45.732Z,71.80
2019-03-11T10:34:15.660Z,72.00
2019-03-11T10:36:45.745Z,68.50
2019-03-11T10:39:15.753Z,68.00
2019-03-11T10:41:45.789Z,68.00
2019-03-11T10:44:15.871Z,64.00
2019-03-11T10:46:45.908Z,63.80
2019-03-11T10:49:15.806Z,61.20
2019-03-11T10:51:45.711Z,58.40
2019-03-11T10:54:15.637Z,55.30
2019-03-11T10:56:45.623Z,54.80
2019-03-11T10:59:15.536Z,52.90
2019-03-11T11:01:45.558Z,51.50
2019-03-11T11:04:15.507Z,50.40
2019-03-11T11:06:45.575Z,50.20
2019-03-11T11:09:15.407Z,50.10
2019-03-11T11:11:45.445Z,50.50
2019-03-11T11:14:15.419Z,51.10
2019-03-11T11:16:46.506Z,51.40
2019-03-11T11:19:16.527Z,50.50
2019-03-11T11:21:46.495Z,51.70
2019-03-11T11:24:16.514Z,50.80
2019-03-11T11:26:48.017Z,51.60
2019-03-11T11:29:18.026Z,50.70
2019-03-11T11:31:47.945Z,49.40
2019-03-11T11:34:21.897Z,49.30
2019-03-11T11:36:51.986Z,47.60
2019-03-11T11:39:21.899Z,46.30
2019-03-11T11:41:51.894Z,45.40
2019-03-11T11:44:21.724Z,45.10
2019-03-11T11:46:51.718Z,45.40
2019-03-11T11:49:21.797Z,46.10
2019-03-11T11:51:51.785Z,43.30
2019-03-11T11:54:21.715Z,42.70
2019-03-11T11:56:51.631Z,41.20
2019-03-11T11:59:21.745Z,43.60
2019-03-11T12:02:03.839Z,43.90
2019-03-11T12:04:28.023Z,48.10
2019-03-11T12:06:58.171Z,49.60
2019-03-11T12:09:28.070Z,50.50
2019-03-11T12:11:57.906Z,50.30
2019-03-11T12:14:27.969Z,49.70
2019-03-11T12:16:57.870Z,45.90
2019-03-11T12:19:27.776Z,43.20
2019-03-11T12:21:57.691Z,38.50
2019-03-11T12:24:27.821Z,41.30
2019-03-11T12:26:57.736Z,29.90
2019-03-11T12:29:28.192Z,23.70
2019-03-11T12:31:58.501Z,21.90
2019-03-11T12:34:28.476Z,20.10
2019-03-11T12:36:58.452Z,21.60
2019-03-11T12:39:28.551Z,21.90
2019-03-11T12:41:58.618Z,22.00
2019-03-11T12:44:28.520Z,22.30
2019-03-11T12:46:58.564Z,22.90
2019-03-11T12:49:28.472Z,23.90
2019-03-11T12:51:58.443Z,24.40
2019-03-11T12:54:28.481Z,23.20
2019-03-11T12:56:58.482Z,23.20
2019-03-11T12:59:28.513Z,21.60
2019-03-11T13:01:58.492Z,22.30
2019-03-11T13:04:28.447Z,20.20
2019-03-11T13:06:58.409Z,21.00
2019-03-11T13:09:28.448Z,21.00
2019-03-11T13:11:58.444Z,20.40
2019-03-11T13:14:28.396Z,18.50
2019-03-11T13:16:59.459Z,15.90
2019-03-11T13:19:29.414Z,14.10
2019-03-11T13:21:59.420Z,15.10
2019-03-11T13:24:29.304Z,14.90
2019-03-11T13:26:59.299Z,15.50
2019-03-11T13:29:29.275Z,16.20
2019-03-11T13:31:59.290Z,17.30
2019-03-11T13:34:29.340Z,16.70
2019-03-11T13:36:59.328Z,17.20
2019-03-11T13:39:29.326Z,17.30
2019-03-11T13:41:59.211Z,16.70
2019-03-11T13:44:29.120Z,16.40
2019-03-11T13:46:59.159Z,16.80
2019-03-11T13:49:29.131Z,16.80
2019-03-11T13:51:59.113Z,15.90
2019-03-11T13:54:29.103Z,15.40
2019-03-11T13:56:59.126Z,15.80
2019-03-11T13:59:29.027Z,15.60
2019-03-11T14:01:58.976Z,15.80
2019-03-11T14:04:28.843Z,16.30
2019-03-11T14:06:58.719Z,16.60
2019-03-11T14:09:28.716Z,16.20
2019-03-11T14:11:58.737Z,15.10
2019-03-11T14:14:28.824Z,16.00
2019-03-11T14:16:58.773Z,15.60
2019-03-11T14:19:28.740Z,15.90
2019-03-11T14:21:58.559Z,15.60
2019-03-11T14:24:28.534Z,14.90
2019-03-11T14:26:58.464Z,14.50
2019-03-11T14:29:28.489Z,14.60
2019-03-11T14:31:58.380Z,14.90
2019-03-11T14:34:28.204Z,14.70
2019-03-11T14:36:58.273Z,14.50
2019-03-11T14:39:28.222Z,13.70
2019-03-11T14:41:58.055Z,13.60
2019-03-11T14:44:28.575Z,13.40
2019-03-11T14:46:58.508Z,12.80
2019-03-11T14:49:28.553Z,12.80
2019-03-11T14:51:58.465Z,12.90
2019-03-11T14:54:28.492Z,13.70
2019-03-11T14:56:58.394Z,14.80
2019-03-11T14:59:28.448Z,14.40
2019-03-11T15:01:58.427Z,14.00
2019-03-11T15:04:28.488Z,13.40
2019-03-11T15:06:58.383Z,13.70
2019-03-11T15:09:28.787Z,13.60
2019-03-11T15:11:58.763Z,13.40
2019-03-11T15:14:28.722Z,13.70
2019-03-11T15:16:58.684Z,14.40
2019-03-11T15:19:28.525Z,12.60
2019-03-11T15:21:58.341Z,13.90
2019-03-11T15:24:28.312Z,12.40
2019-03-11T15:26:58.217Z,11.70
2019-03-11T15:29:28.246Z,11.90
2019-03-11T15:31:58.173Z,11.90
2019-03-11T15:34:28.141Z,11.70
2019-03-11T15:36:58.016Z,12.70
2019-03-11T15:39:28.002Z,11.80
2019-03-11T15:41:58.030Z,12.80
2019-03-11T15:44:27.921Z,12.40
2019-03-11T15:46:57.917Z,12.50
2019-03-11T15:49:27.798Z,12.90
2019-03-11T15:51:57.743Z,14.00
2019-03-11T15:54:27.714Z,12.50
2019-03-11T15:56:57.677Z,13.10
2019-03-11T15:59:27.659Z,12.90
2019-03-11T16:01:57.604Z,14.30
2019-03-11T16:04:28.936Z,13.10
2019-03-11T16:06:58.884Z,11.40
2019-03-11T16:09:28.861Z,11.60
2019-03-11T16:11:58.910Z,11.60
2019-03-11T16:14:28.940Z,12.20
2019-03-11T16:16:58.918Z,13.10
2019-03-11T16:19:28.917Z,11.90
2019-03-11T16:21:58.939Z,11.40
2019-03-11T16:24:28.913Z,11.90
2019-03-11T16:26:58.896Z,11.70
2019-03-11T16:29:28.857Z,12.00
2019-03-11T16:31:58.820Z,12.10
2019-03-11T16:34:29.748Z,13.60
2019-03-11T16:36:59.794Z,15.40
2019-03-11T16:39:29.743Z,16.00
2019-03-11T16:41:59.796Z,17.10
2019-03-11T16:44:29.869Z,17.30
2019-03-11T16:46:59.880Z,17.40
2019-03-11T16:49:29.853Z,17.80
2019-03-11T16:51:59.769Z,17.90
2019-03-11T16:54:29.672Z,18.20
2019-03-11T16:56:59.636Z,18.60
2019-03-11T16:59:29.664Z,19.00
2019-03-11T17:01:59.572Z,18.90
2019-03-11T17:04:29.572Z,17.60
2019-03-11T17:06:59.545Z,17.70
2019-03-11T17:09:29.506Z,17.20
2019-03-11T17:11:59.545Z,17.10
2019-03-11T17:14:29.453Z,17.50
2019-03-11T17:16:59.485Z,17.20
2019-03-11T17:19:29.451Z,17.30
2019-03-11T17:21:59.329Z,17.00
2019-03-11T17:24:29.290Z,17.60
2019-03-11T17:26:59.180Z,16.40
2019-03-11T17:29:28.997Z,16.40
2019-03-11T17:31:59.065Z,16.90
2019-03-11T17:34:29.103Z,15.80
2019-03-11T17:36:59.000Z,15.50
2019-03-11T17:39:28.820Z,15.90
2019-03-11T17:41:58.790Z,16.10
2019-03-11T17:44:30.230Z,16.00
2019-03-11T17:47:00.209Z,16.10
2019-03-11T17:49:30.191Z,16.10
2019-03-11T17:52:00.099Z,16.30
2019-03-11T17:54:30.063Z,16.30
2019-03-11T17:57:00.253Z,15.80
2019-03-11T17:59:30.292Z,15.50
2019-03-11T18:02:00.351Z,14.90
2019-03-11T18:04:30.420Z,14.50
2019-03-11T18:07:00.524Z,13.90
2019-03-11T18:09:30.569Z,12.10
2019-03-11T18:12:00.852Z,13.30
2019-03-11T18:14:30.814Z,13.70
2019-03-11T18:17:00.805Z,13.70
2019-03-11T18:19:30.773Z,12.30
2019-03-11T18:22:00.762Z,13.20
2019-03-11T18:24:30.664Z,11.40
2019-03-11T18:27:00.575Z,12.40
2019-03-11T18:29:31.615Z,11.60
2019-03-11T18:32:02.370Z,12.90
2019-03-11T18:34:32.541Z,12.30
2019-03-11T18:37:02.462Z,12.20
2019-03-11T18:39:32.493Z,11.30
2019-03-11T18:42:02.476Z,11.70
2019-03-11T18:44:32.415Z,11.80
2019-03-11T18:47:02.387Z,12.10
2019-03-11T18:49:32.341Z,12.20
2019-03-11T18:52:02.398Z,11.90
2019-03-11T18:54:32.371Z,12.20
2019-03-11T18:57:02.322Z,12.30
2019-03-11T18:59:32.305Z,12.30
2019-03-11T19:02:02.192Z,12.40
2019-03-11T19:04:32.312Z,12.00
2019-03-11T19:07:02.314Z,12.70
2019-03-11T19:09:32.251Z,12.90
2019-03-11T19:12:02.207Z,12.90
2019-03-11T19:14:32.181Z,12.80
2019-03-11T19:17:03.148Z,12.90
2019-03-11T19:19:33.163Z,13.40
2019-03-11T19:22:04.713Z,14.00
2019-03-11T19:24:34.754Z,13.80
2019-03-11T19:27:04.751Z,13.80
2019-03-11T19:29:34.622Z,14.50
2019-03-11T19:32:09.989Z,14.60
2019-03-11T19:34:39.947Z,13.30
2019-03-11T19:37:10.024Z,14.10
2019-03-11T19:39:39.853Z,14.40
2019-03-11T19:42:09.864Z,15.00
2019-03-11T19:44:39.880Z,14.70
2019-03-11T19:47:09.897Z,14.40
2019-03-11T19:49:39.948Z,14.80
2019-03-11T19:52:09.762Z,15.20
2019-03-11T19:54:39.762Z,14.40
2019-03-11T19:57:09.916Z,15.90
2019-03-11T19:59:40.026Z,17.00
2019-03-11T20:02:10.065Z,17.80
2019-03-11T20:04:40.235Z,16.60
2019-03-11T20:07:10.482Z,17.80
2019-03-11T20:09:40.620Z,17.50
2019-03-11T20:12:10.846Z,16.30
2019-03-11T20:14:40.921Z,18.60
2019-03-11T20:17:10.956Z,15.50
2019-03-11T20:19:40.925Z,15.70
2019-03-11T20:22:10.951Z,16.80
2019-03-11T20:24:41.090Z,18.00
2019-03-11T20:27:12.213Z,18.00
2019-03-11T20:29:42.176Z,18.80
2019-03-11T20:32:13.295Z,19.10
2019-03-11T20:34:43.415Z,19.90
2019-03-11T20:37:13.304Z,20.60
2019-03-11T20:39:43.527Z,19.30
2019-03-11T20:42:13.457Z,18.50
2019-03-11T20:44:43.561Z,19.50
2019-03-11T20:47:13.518Z,20.40
2019-03-11T20:49:43.628Z,20.30
2019-03-11T20:52:13.788Z,19.50
2019-03-11T20:54:43.784Z,18.90
2019-03-11T20:57:13.903Z,19.10
2019-03-11T20:59:44.024Z,18.90
2019-03-11T21:02:14.054Z,18.60
2019-03-11T21:04:44.104Z,19.20
2019-03-11T21:07:14.292Z,18.90
2019-03-11T21:09:44.243Z,18.50
2019-03-11T21:12:14.193Z,18.90
2019-03-11T21:14:44.263Z,18.10
2019-03-11T21:17:25.326Z,18.10
2019-03-11T21:19:45.872Z,19.90
2019-03-11T21:22:15.988Z,19.90
2019-03-11T21:24:55.533Z,19.50
2019-03-11T21:27:17.737Z,20.30
2019-03-11T21:29:47.681Z,20.20
2019-03-11T21:32:17.656Z,19.80
2019-03-11T21:34:47.623Z,20.70
2019-03-11T21:37:17.806Z,20.20
2019-03-11T21:39:47.805Z,21.20
2019-03-11T21:42:17.854Z,21.60
2019-03-11T21:44:47.778Z,21.70
2019-03-11T21:47:17.751Z,23.10
2019-03-11T21:49:47.713Z,22.70
2019-03-11T21:52:17.595Z,23.30
2019-03-11T21:54:47.876Z,23.40
2019-03-11T21:57:17.803Z,23.70
2019-03-11T21:59:47.804Z,24.40
2019-03-11T22:02:17.848Z,23.10
2019-03-11T22:04:47.784Z,23.00
2019-03-11T22:07:17.762Z,22.20
2019-03-11T22:09:47.798Z,22.20
2019-03-11T22:12:17.628Z,23.20
2019-03-11T22:14:47.761Z,23.90
2019-03-11T22:17:17.658Z,24.60
2019-03-11T22:19:47.605Z,24.50
2019-03-11T22:22:17.639Z,23.50
2019-03-11T22:24:47.516Z,23.60
2019-03-11T22:27:17.478Z,24.00
2019-03-11T22:29:47.356Z,22.30
2019-03-11T22:32:17.300Z,22.30
2019-03-11T22:34:47.145Z,22.00
2019-03-11T22:37:17.184Z,22.20
2019-03-11T22:39:47.165Z,22.10
2019-03-11T22:42:17.129Z,22.20
2019-03-11T22:44:47.103Z,22.30
2019-03-11T22:47:17.052Z,22.90
2019-03-11T22:49:47.091Z,22.80
2019-03-11T22:52:18.814Z,22.50
2019-03-11T22:54:48.555Z,23.00
2019-03-11T22:57:18.589Z,22.80
2019-03-11T22:59:48.476Z,23.00
2019-03-11T23:02:18.511Z,22.90
2019-03-11T23:04:48.491Z,23.20
2019-03-11T23:07:18.473Z,23.10
2019-03-11T23:09:48.412Z,22.90
2019-03-11T23:12:18.368Z,22.40
2019-03-11T23:14:48.263Z,22.40
2019-03-11T23:17:18.253Z,23.10
2019-03-11T23:19:48.197Z,23.00
2019-03-11T23:22:18.320Z,23.10
2019-03-11T23:24:48.275Z,23.50
2019-03-11T23:27:18.086Z,23.80
2019-03-11T23:29:48.073Z,23.80
2019-03-11T23:32:18.023Z,23.70
2019-03-11T23:34:48.049Z,23.70
2019-03-11T23:37:17.987Z,24.10
2019-03-11T23:39:47.963Z,24.10
2019-03-11T23:42:17.993Z,24.20
2019-03-11T23:44:47.940Z,24.30
2019-03-11T23:47:17.981Z,23.90
2019-03-11T23:49:48.004Z,24.10
2019-03-11T23:52:17.960Z,23.70
2019-03-11T23:54:48.081Z,24.00
2019-03-11T23:57:17.990Z,24.20
2019-03-11T23:59:47.772Z,24.00
